Time;durP1;ratioP1;P1;durP2;ratioP2;P2;SDS_P1;SDS_P2;PMS_P1;PMS_P2;Temp;Humidity;BMP_temperature;BMP_pressure;BME280_temperature;BME280_humidity;BME280_pressure;Samples;Min_cycle;Max_cycle;Signal;HPM_P1;HPM_P2
2023/01/28 00:02:14;;;;;;;;;27.50;22.75;;;;;;;;5059226;28;11618;-80
2023/01/28 00:04:43;;;;;;;;;20.75;20.75;;;;;;;;5072282;28;11565;-81
2023/01/28 00:07:10;;;;;;;;;24.00;22.50;;;;;;;;5070725;28;11587;-81
2023/01/28 00:09:38;;;;;;;;;28.75;25.00;;;;;;;;5072837;28;12372;-81
2023/01/28 00:12:06;;;;;;;;;34.00;30.00;;;;;;;;5068800;28;11542;-81
2023/01/28 00:14:34;;;;;;;;;51.75;44.00;;;;;;;;5073695;28;11577;-81
2023/01/28 00:17:01;;;;;;;;;33.50;28.50;;;;;;;;5076170;28;11583;-81
2023/01/28 00:19:28;;;;;;;;;30.25;27.25;;;;;;;;5068698;28;11623;-81
2023/01/28 00:21:58;;;;;;;;;34.50;29.00;;;;;;;;5072262;28;11556;-81
2023/01/28 00:24:26;;;;;;;;;32.00;28.75;;;;;;;;5074796;28;11548;-81
2023/01/28 00:26:53;;;;;;;;;27.25;19.25;;;;;;;;5072619;28;11596;-81
2023/01/28 00:29:21;;;;;;;;;30.75;25.00;;;;;;;;5058217;28;11591;-81
2023/01/28 00:31:49;;;;;;;;;29.50;23.75;;;;;;;;5067200;28;11518;-80
2023/01/28 00:34:17;;;;;;;;;24.00;24.00;;;;;;;;5076999;28;11578;-82
2023/01/28 00:36:45;;;;;;;;;40.75;33.75;;;;;;;;5069976;28;12322;-81
2023/01/28 00:39:15;;;;;;;;;27.00;24.50;;;;;;;;5076114;28;11572;-81
2023/01/28 00:41:42;;;;;;;;;37.00;32.75;;;;;;;;5104451;27;11732;-81
2023/01/28 00:44:10;;;;;;;;;24.25;24.25;;;;;;;;5069177;28;11594;-82
2023/01/28 00:46:40;;;;;;;;;31.75;28.25;;;;;;;;5075592;28;11598;-80
2023/01/28 00:49:08;;;;;;;;;33.75;32.75;;;;;;;;5074002;28;11565;-81
2023/01/28 00:51:35;;;;;;;;;26.00;24.25;;;;;;;;5072767;28;11573;-81
2023/01/28 00:54:03;;;;;;;;;32.50;28.00;;;;;;;;5073643;28;11580;-82
2023/01/28 00:56:32;;;;;;;;;31.50;24.50;;;;;;;;5108461;27;11618;-81
2023/01/28 00:59:00;;;;;;;;;26.25;24.75;;;;;;;;5069356;28;11586;-81
2023/01/28 01:01:28;;;;;;;;;30.75;26.50;;;;;;;;5067885;28;11541;-81
2023/01/28 01:04:01;;;;;;;;;33.00;27.00;;;;;;;;5075039;28;11572;-82
2023/01/28 01:06:30;;;;;;;;;30.75;30.75;;;;;;;;5078144;28;11547;-82
2023/01/28 01:08:57;;;;;;;;;33.50;24.00;;;;;;;;5082113;28;11570;-82
2023/01/28 01:11:25;;;;;;;;;33.75;29.00;;;;;;;;5061433;28;11702;-82
2023/01/28 01:13:56;;;;;;;;;30.75;27.50;;;;;;;;5075761;28;11559;-81
2023/01/28 01:16:28;;;;;;;;;34.00;28.75;;;;;;;;5078353;28;11677;-81
2023/01/28 01:18:56;;;;;;;;;33.25;33.25;;;;;;;;5076981;28;11611;-82
2023/01/28 01:21:26;;;;;;;;;22.25;20.50;;;;;;;;5083072;28;11584;-83
2023/01/28 01:23:54;;;;;;;;;25.50;23.50;;;;;;;;5076332;28;11609;-81
2023/01/28 01:26:21;;;;;;;;;33.00;29.00;;;;;;;;5076351;28;11628;-82
2023/01/28 01:28:49;;;;;;;;;27.75;24.50;;;;;;;;5073965;28;11586;-82
2023/01/28 01:31:19;;;;;;;;;28.25;25.00;;;;;;;;5076227;28;11502;-82
2023/01/28 01:33:50;;;;;;;;;31.00;28.75;;;;;;;;5075204;28;11565;-82
2023/01/28 01:36:19;;;;;;;;;23.50;20.50;;;;;;;;5081876;28;11685;-81
2023/01/28 01:38:47;;;;;;;;;20.00;20.00;;;;;;;;5080753;28;11608;-82
2023/01/28 01:41:27;;;;;;;;;27.50;25.50;;;;;;;;5080371;28;11556;-81
2023/01/28 01:43:56;;;;;;;;;30.50;27.25;;;;;;;;5075616;28;11563;-82
2023/01/28 01:46:32;;;;;;;;;31.00;26.50;;;;;;;;5072849;28;11572;-82
2023/01/28 01:49:03;;;;;;;;;30.50;29.50;;;;;;;;5074319;28;11578;-82
2023/01/28 01:51:33;;;;;;;;;27.00;25.25;;;;;;;;5071749;28;11574;-82
2023/01/28 01:54:01;;;;;;;;;27.50;26.25;;;;;;;;5076328;28;11600;-83
2023/01/28 01:56:34;;;;;;;;;23.25;23.25;;;;;;;;5078699;28;11543;-82
2023/01/28 01:59:02;;;;;;;;;20.50;20.50;;;;;;;;5074171;28;11619;-84
2023/01/28 02:01:32;;;;;;;;;26.75;23.50;;;;;;;;5069830;28;11531;-82
2023/01/28 02:04:05;;;;;;;;;30.50;30.50;;;;;;;;5062396;28;11559;-81
2023/01/28 02:06:32;;;;;;;;;29.50;28.00;;;;;;;;5076271;28;11557;-82
2023/01/28 02:09:00;;;;;;;;;35.25;30.50;;;;;;;;5073945;28;11578;-82
2023/01/28 02:11:31;;;;;;;;;38.75;35.25;;;;;;;;5075115;28;11572;-82
2023/01/28 02:14:01;;;;;;;;;39.25;35.25;;;;;;;;5075973;28;11590;-82
2023/01/28 02:16:32;;;;;;;;;34.50;31.00;;;;;;;;5078574;28;12335;-82
2023/01/28 02:19:00;;;;;;;;;39.25;38.00;;;;;;;;5076735;28;11538;-83
2023/01/28 02:22:01;;;;;;;;;24.00;19.00;;;;;;;;5071832;28;11595;-83
2023/01/28 02:24:45;;;;;;;;;29.50;28.25;;;;;;;;5073973;28;11514;-83
2023/01/28 02:27:35;;;;;;;;;38.25;33.50;;;;;;;;5071541;28;11604;-81
2023/01/28 02:30:10;;;;;;;;;34.25;27.50;;;;;;;;5074266;28;11600;-82
2023/01/28 02:32:43;;;;;;;;;35.75;34.50;;;;;;;;5081545;28;11577;-82
2023/01/28 02:35:14;;;;;;;;;27.00;26.25;;;;;;;;5086757;28;11585;-81
2023/01/28 02:37:46;;;;;;;;;32.00;28.25;;;;;;;;5076015;28;11684;-82
2023/01/28 02:40:17;;;;;;;;;25.75;25.75;;;;;;;;5080319;28;11521;-82
2023/01/28 02:42:45;;;;;;;;;23.50;23.50;;;;;;;;5078062;28;11562;-82
2023/01/28 02:47:56;;;;;;;;;18.50;15.75;;;;;;;;5073972;28;11596;-81
2023/01/28 02:48:16;;;;;;;;;28.50;24.00;;;;;;;;5083842;28;11518;-81
2023/01/28 02:50:49;;;;;;;;;28.75;23.25;;;;;;;;5079049;28;12450;-82
2023/01/28 02:53:42;;;;;;;;;32.50;27.00;;;;;;;;5080133;28;11648;-81
2023/01/28 02:56:19;;;;;;;;;25.00;23.25;;;;;;;;5077087;28;11549;-82
2023/01/28 02:58:52;;;;;;;;;24.75;24.25;;;;;;;;5075699;28;11644;-81
2023/01/28 03:01:26;;;;;;;;;27.25;20.75;;;;;;;;5072368;28;11499;-80
2023/01/28 03:04:00;;;;;;;;;26.00;22.75;;;;;;;;5097635;28;11572;-82
2023/01/28 03:06:34;;;;;;;;;11.50;10.75;;;;;;;;5077037;28;11578;-81
2023/01/28 03:09:23;;;;;;;;;20.25;14.75;;;;;;;;5076106;28;11515;-82
2023/01/28 03:36:58;;;;;;;;;30.00;24.50;;;;;;;;5077729;28;11520;-82
2023/01/28 03:39:27;;;;;;;;;32.75;24.50;;;;;;;;5072129;28;11541;-82
2023/01/28 03:41:59;;;;;;;;;30.50;28.25;;;;;;;;5079926;28;11578;-82
2023/01/28 03:47:12;;;;;;;;;27.50;23.25;;;;;;;;5073165;28;11528;-80
2023/01/28 03:49:44;;;;;;;;;31.00;26.00;;;;;;;;5071445;28;12769;-82
2023/01/28 03:52:12;;;;;;;;;31.00;25.75;;;;;;;;5076091;28;11576;-81
2023/01/28 03:54:39;;;;;;;;;34.50;30.25;;;;;;;;5076618;28;11573;-81
2023/01/28 03:57:07;;;;;;;;;29.25;21.50;;;;;;;;5070653;28;11568;-81
2023/01/28 03:59:36;;;;;;;;;34.25;27.75;;;;;;;;5070177;28;11574;-81
2023/01/28 04:02:04;;;;;;;;;27.75;23.25;;;;;;;;5081782;27;11482;-81
2023/01/28 04:04:32;;;;;;;;;32.25;30.50;;;;;;;;5069508;28;11814;-81
2023/01/28 04:07:01;;;;;;;;;35.75;32.00;;;;;;;;5070052;28;11576;-81
2023/01/28 04:09:29;;;;;;;;;32.25;29.50;;;;;;;;5071952;28;11590;-81
2023/01/28 04:11:57;;;;;;;;;43.50;38.75;;;;;;;;5074191;28;11578;-81
2023/01/28 04:14:24;;;;;;;;;33.00;29.75;;;;;;;;5071588;28;11594;-81
2023/01/28 04:16:53;;;;;;;;;31.00;26.25;;;;;;;;5073579;28;12339;-81
2023/01/28 04:19:21;;;;;;;;;27.00;20.75;;;;;;;;5076373;28;11611;-81
2023/01/28 04:21:49;;;;;;;;;31.25;30.50;;;;;;;;5099202;27;11571;-81
2023/01/28 04:24:18;;;;;;;;;35.50;29.25;;;;;;;;5070555;28;11602;-81
2023/01/28 04:26:45;;;;;;;;;31.00;24.75;;;;;;;;5074236;28;11537;-82
2023/01/28 04:29:13;;;;;;;;;33.50;27.25;;;;;;;;5072484;28;11605;-82
2023/01/28 04:31:41;;;;;;;;;29.50;28.00;;;;;;;;5041412;28;11512;-82
2023/01/28 04:34:09;;;;;;;;;29.75;28.00;;;;;;;;5074839;28;12323;-81
2023/01/28 04:36:37;;;;;;;;;28.00;27.00;;;;;;;;5073261;28;11551;-82
2023/01/28 04:39:05;;;;;;;;;23.75;23.75;;;;;;;;5072896;28;11580;-81
2023/01/28 04:41:34;;;;;;;;;36.25;31.00;;;;;;;;5075369;28;11557;-82
2023/01/28 04:44:02;;;;;;;;;32.75;27.00;;;;;;;;5075179;28;11586;-82
2023/01/28 04:46:31;;;;;;;;;38.50;37.50;;;;;;;;5070393;28;11606;-82
2023/01/28 04:48:58;;;;;;;;;38.75;29.50;;;;;;;;5078515;28;11544;-82
2023/01/28 04:51:25;;;;;;;;;29.00;29.00;;;;;;;;5072196;28;11590;-82
2023/01/28 04:53:53;;;;;;;;;35.25;31.00;;;;;;;;5070866;28;11565;-82
2023/01/28 04:56:20;;;;;;;;;32.00;27.00;;;;;;;;5072688;28;11558;-82
2023/01/28 04:58:49;;;;;;;;;31.75;28.75;;;;;;;;5074282;28;11600;-82
2023/01/28 05:01:17;;;;;;;;;29.75;24.25;;;;;;;;5075979;28;12279;-82
2023/01/28 05:03:44;;;;;;;;;36.50;29.50;;;;;;;;5078230;28;11534;-82
2023/01/28 05:06:12;;;;;;;;;27.25;24.00;;;;;;;;5072969;28;11558;-81
2023/01/28 05:08:40;;;;;;;;;23.75;22.75;;;;;;;;5072821;28;11530;-82
2023/01/28 05:11:07;;;;;;;;;24.25;22.75;;;;;;;;5073586;28;11543;-81
2023/01/28 05:13:35;;;;;;;;;32.75;29.75;;;;;;;;5075930;28;11493;-81
2023/01/28 05:16:04;;;;;;;;;29.25;22.50;;;;;;;;5080329;28;12369;-81
2023/01/28 05:18:32;;;;;;;;;35.75;31.50;;;;;;;;5079628;28;11710;-81
2023/01/28 05:21:00;;;;;;;;;35.00;27.25;;;;;;;;5094250;28;11724;-82
2023/01/28 05:23:27;;;;;;;;;32.75;28.75;;;;;;;;5073772;28;11563;-82
2023/01/28 05:25:54;;;;;;;;;30.00;27.50;;;;;;;;5074611;28;11607;-83
2023/01/28 05:28:22;;;;;;;;;27.00;27.00;;;;;;;;5074144;28;11619;-82
2023/01/28 05:30:51;;;;;;;;;37.25;33.00;;;;;;;;5079655;28;11516;-81
2023/01/28 05:33:20;;;;;;;;;34.00;28.25;;;;;;;;5074661;28;11576;-82
2023/01/28 05:35:48;;;;;;;;;34.75;33.00;;;;;;;;5075607;28;11561;-82
2023/01/28 05:38:16;;;;;;;;;32.50;27.75;;;;;;;;5061510;28;12130;-81
2023/01/28 05:40:44;;;;;;;;;30.50;30.25;;;;;;;;5074775;28;11553;-81
2023/01/28 05:43:11;;;;;;;;;38.50;36.50;;;;;;;;5069873;28;11653;-81
2023/01/28 05:45:39;;;;;;;;;34.50;29.50;;;;;;;;5069248;28;11579;-81
2023/01/28 05:48:07;;;;;;;;;35.25;33.50;;;;;;;;5071105;28;11599;-81
2023/01/28 05:50:48;;;;;;;;;33.00;26.75;;;;;;;;5073445;28;11603;-81
2023/01/28 05:53:16;;;;;;;;;18.25;16.50;;;;;;;;5069948;28;11570;-81
2023/01/28 05:55:44;;;;;;;;;29.00;28.25;;;;;;;;5074613;28;11576;-81
2023/01/28 05:58:11;;;;;;;;;33.00;29.50;;;;;;;;5074910;28;11693;-81
2023/01/28 06:00:39;;;;;;;;;31.50;28.25;;;;;;;;5057863;28;11578;-82
2023/01/28 06:03:07;;;;;;;;;27.25;26.00;;;;;;;;5098429;27;11539;-81
2023/01/28 06:05:40;;;;;;;;;31.00;28.25;;;;;;;;5084244;28;11535;-79
2023/01/28 06:08:08;;;;;;;;;22.75;20.00;;;;;;;;5081884;28;11556;-83
2023/01/28 06:10:36;;;;;;;;;28.75;24.75;;;;;;;;5076127;28;12341;-82
2023/01/28 06:13:04;;;;;;;;;30.00;30.00;;;;;;;;5077510;28;11545;-82
2023/01/28 06:15:31;;;;;;;;;28.00;17.75;;;;;;;;5074225;28;11572;-82
2023/01/28 06:17:59;;;;;;;;;31.50;29.50;;;;;;;;5078515;28;11613;-82
2023/01/28 06:20:30;;;;;;;;;34.25;29.75;;;;;;;;5079141;28;11565;-82
2023/01/28 06:22:59;;;;;;;;;24.50;24.50;;;;;;;;5080027;28;11579;-82
2023/01/28 06:25:26;;;;;;;;;23.25;20.50;;;;;;;;5080307;28;11556;-84
2023/01/28 06:28:13;;;;;;;;;26.50;21.25;;;;;;;;5063977;28;11588;-83
2023/01/28 06:30:40;;;;;;;;;34.25;28.50;;;;;;;;5077786;28;11578;-81
2023/01/28 06:33:10;;;;;;;;;30.50;28.50;;;;;;;;5078633;28;11576;-81
2023/01/28 06:35:40;;;;;;;;;23.75;23.75;;;;;;;;5077711;28;11699;-86
2023/01/28 06:38:09;;;;;;;;;36.25;32.00;;;;;;;;5078794;28;11559;-86
2023/01/28 06:40:37;;;;;;;;;36.50;32.00;;;;;;;;5075526;28;11562;-78
2023/01/28 06:43:04;;;;;;;;;30.25;28.00;;;;;;;;5091230;28;11574;-77
2023/01/28 06:45:32;;;;;;;;;34.75;32.00;;;;;;;;5078956;28;11576;-78
2023/01/28 06:48:08;;;;;;;;;30.75;27.00;;;;;;;;5079319;28;12521;-79
2023/01/28 06:50:38;;;;;;;;;32.50;25.00;;;;;;;;5074734;28;11589;-76
2023/01/28 06:53:07;;;;;;;;;25.25;23.75;;;;;;;;5077611;28;11534;-76
2023/01/28 06:55:42;;;;;;;;;31.00;25.50;;;;;;;;5074702;28;11562;-79
2023/01/28 06:58:10;;;;;;;;;29.25;25.25;;;;;;;;5076211;28;11592;-78
2023/01/28 07:00:38;;;;;;;;;33.50;28.75;;;;;;;;5074996;28;11500;-78
2023/01/28 07:03:06;;;;;;;;;29.25;25.75;;;;;;;;5076797;28;11675;-78
2023/01/28 07:05:34;;;;;;;;;38.25;28.50;;;;;;;;5076973;28;11583;-76
2023/01/28 07:08:02;;;;;;;;;30.75;27.25;;;;;;;;5075856;28;11567;-76
2023/01/28 07:10:30;;;;;;;;;30.50;26.50;;;;;;;;5077013;28;11545;-77
2023/01/28 07:12:59;;;;;;;;;31.00;28.50;;;;;;;;5077565;28;11559;-76
2023/01/28 07:15:27;;;;;;;;;30.00;26.00;;;;;;;;5074988;28;11578;-73
2023/01/28 07:17:55;;;;;;;;;31.75;27.75;;;;;;;;5077179;28;11594;-73
2023/01/28 07:20:23;;;;;;;;;30.25;28.50;;;;;;;;5080540;28;12418;-75
2023/01/28 07:22:51;;;;;;;;;28.75;24.00;;;;;;;;5082417;28;11698;-74
2023/01/28 07:25:18;;;;;;;;;35.00;32.75;;;;;;;;5076719;28;11556;-75
2023/01/28 07:27:53;;;;;;;;;33.25;28.00;;;;;;;;5078287;28;11563;-75
2023/01/28 07:30:23;;;;;;;;;32.00;27.75;;;;;;;;5068477;28;11531;-75
2023/01/28 07:32:57;;;;;;;;;32.50;30.00;;;;;;;;5093719;28;11546;-73
2023/01/28 07:35:30;;;;;;;;;34.25;30.50;;;;;;;;5074562;28;11672;-76
2023/01/28 07:37:59;;;;;;;;;39.75;37.75;;;;;;;;5078040;28;11555;-74
2023/01/28 07:40:28;;;;;;;;;34.75;27.75;;;;;;;;5073576;28;11604;-76
2023/01/28 07:42:55;;;;;;;;;27.75;25.25;;;;;;;;5077480;28;11567;-73
2023/01/28 07:45:27;;;;;;;;;40.25;38.00;;;;;;;;5076167;28;11603;-74
2023/01/28 07:47:56;;;;;;;;;35.50;30.50;;;;;;;;5073064;28;11557;-74
2023/01/28 07:50:24;;;;;;;;;33.75;26.75;;;;;;;;5075239;28;12310;-74
2023/01/28 07:52:51;;;;;;;;;30.75;30.00;;;;;;;;5082312;28;11585;-73
2023/01/28 07:55:19;;;;;;;;;44.25;28.50;;;;;;;;5060217;28;11614;-72
2023/01/28 07:57:50;;;;;;;;;36.25;30.00;;;;;;;;5074138;28;12380;-73
2023/01/28 08:00:19;;;;;;;;;36.00;36.00;;;;;;;;5077851;28;12925;-73
2023/01/28 08:02:48;;;;;;;;;36.75;35.25;;;;;;;;5070422;28;11576;-72
2023/01/28 08:05:18;;;;;;;;;36.00;32.25;;;;;;;;5068282;28;11609;-73
2023/01/28 08:07:47;;;;;;;;;32.00;28.75;;;;;;;;5071293;28;11569;-75
2023/01/28 08:10:15;;;;;;;;;23.25;22.25;;;;;;;;5070714;28;11658;-74
2023/01/28 08:12:50;;;;;;;;;39.50;37.75;;;;;;;;5074470;28;11575;-75
2023/01/28 08:15:18;;;;;;;;;38.00;34.00;;;;;;;;5072968;28;11656;-75
2023/01/28 08:17:47;;;;;;;;;31.25;27.50;;;;;;;;5076065;28;11617;-75
2023/01/28 08:20:14;;;;;;;;;32.25;30.50;;;;;;;;5077015;28;11583;-73
2023/01/28 08:22:42;;;;;;;;;33.75;28.50;;;;;;;;5072841;28;11566;-73
2023/01/28 08:25:10;;;;;;;;;29.75;25.50;;;;;;;;5073261;28;11549;-73
2023/01/28 08:27:37;;;;;;;;;26.50;26.50;;;;;;;;5077047;28;11520;-73
2023/01/28 08:30:05;;;;;;;;;35.50;31.00;;;;;;;;5071087;28;11664;-73
2023/01/28 08:32:33;;;;;;;;;31.00;29.50;;;;;;;;5081147;28;11594;-73
2023/01/28 08:35:02;;;;;;;;;28.50;26.00;;;;;;;;5079070;28;11577;-73
2023/01/28 08:37:29;;;;;;;;;24.25;24.25;;;;;;;;5076790;28;11692;-73
2023/01/28 08:39:57;;;;;;;;;31.25;27.75;;;;;;;;5074088;28;11537;-73
2023/01/28 08:42:24;;;;;;;;;31.75;27.25;;;;;;;;5073374;28;11547;-72
2023/01/28 08:44:51;;;;;;;;;34.25;32.50;;;;;;;;5073069;28;11573;-72
2023/01/28 08:47:19;;;;;;;;;27.00;25.25;;;;;;;;5072112;28;11573;-73
2023/01/28 08:49:47;;;;;;;;;23.75;23.75;;;;;;;;5078305;28;11540;-72
2023/01/28 08:52:16;;;;;;;;;28.50;24.25;;;;;;;;5071401;28;11537;-72
2023/01/28 08:54:43;;;;;;;;;23.50;23.50;;;;;;;;5077571;28;11588;-72
2023/01/28 08:57:11;;;;;;;;;19.75;19.00;;;;;;;;5079872;28;11570;-72
2023/01/28 08:59:43;;;;;;;;;29.25;25.00;;;;;;;;5073624;28;11539;-72
2023/01/28 09:02:14;;;;;;;;;23.00;20.25;;;;;;;;5078064;28;11484;-72
2023/01/28 09:04:42;;;;;;;;;36.25;31.75;;;;;;;;5073983;28;11597;-71
2023/01/28 09:07:09;;;;;;;;;34.50;29.50;;;;;;;;5078592;28;11598;-72
2023/01/28 09:09:38;;;;;;;;;32.75;25.25;;;;;;;;5073477;28;11572;-72
2023/01/28 09:12:07;;;;;;;;;24.00;22.25;;;;;;;;5076383;28;11557;-70
2023/01/28 09:14:34;;;;;;;;;30.75;27.50;;;;;;;;5074703;28;11569;-72
2023/01/28 09:17:01;;;;;;;;;31.75;30.00;;;;;;;;5077298;28;11706;-72
2023/01/28 09:19:29;;;;;;;;;31.75;27.50;;;;;;;;5072545;28;11550;-72
2023/01/28 09:21:56;;;;;;;;;29.75;25.75;;;;;;;;5074171;28;11562;-72
2023/01/28 09:24:24;;;;;;;;;25.75;25.25;;;;;;;;5078108;28;11577;-72
2023/01/28 09:26:53;;;;;;;;;28.75;26.25;;;;;;;;5079054;28;11587;-72
2023/01/28 09:29:20;;;;;;;;;23.00;20.25;;;;;;;;5073593;28;11543;-72
2023/01/28 09:31:48;;;;;;;;;22.75;22.50;;;;;;;;5072547;28;11516;-71
2023/01/28 09:34:15;;;;;;;;;33.50;33.50;;;;;;;;5077621;28;11597;-71
2023/01/28 09:36:42;;;;;;;;;45.75;40.00;;;;;;;;5074582;28;11557;-72
2023/01/28 09:39:10;;;;;;;;;36.25;32.00;;;;;;;;5079721;28;11623;-72
2023/01/28 09:41:48;;;;;;;;;18.00;18.00;;;;;;;;5077164;28;11572;-72
2023/01/28 09:44:27;;;;;;;;;32.00;26.25;;;;;;;;5073518;28;11715;-72
2023/01/28 09:47:01;;;;;;;;;27.50;27.50;;;;;;;;5076806;28;11563;-72
2023/01/28 09:49:35;;;;;;;;;19.50;19.50;;;;;;;;5071588;28;11581;-72
2023/01/28 09:52:03;;;;;;;;;24.50;18.50;;;;;;;;5074434;28;11618;-71
2023/01/28 09:54:38;;;;;;;;;26.25;23.25;;;;;;;;5073315;28;11558;-72
2023/01/28 09:57:19;;;;;;;;;28.00;25.75;;;;;;;;5078795;28;12432;-72
2023/01/28 09:59:49;;;;;;;;;23.25;23.25;;;;;;;;5077840;28;11615;-72
2023/01/28 10:02:38;;;;;;;;;23.50;22.00;;;;;;;;5080581;28;11524;-72
2023/01/28 10:05:17;;;;;;;;;25.25;23.50;;;;;;;;5082683;28;11553;-72
2023/01/28 10:07:51;;;;;;;;;26.25;22.50;;;;;;;;5082425;28;11515;-71
2023/01/28 10:10:25;;;;;;;;;26.50;21.50;;;;;;;;5082938;28;12416;-72
2023/01/28 10:13:06;;;;;;;;;27.50;27.50;;;;;;;;5082135;28;11535;-72
2023/01/28 10:16:00;;;;;;;;;36.50;33.50;;;;;;;;5080927;28;11603;-75
2023/01/28 10:18:33;;;;;;;;;24.00;19.25;;;;;;;;5076670;28;11561;-75
2023/01/28 10:21:08;;;;;;;;;27.75;26.75;;;;;;;;5081664;28;11517;-71
2023/01/28 10:23:46;;;;;;;;;24.25;22.00;;;;;;;;5082422;28;11538;-71
2023/01/28 10:26:22;;;;;;;;;24.75;20.00;;;;;;;;5081785;28;11539;-71
2023/01/28 10:28:55;;;;;;;;;21.25;19.00;;;;;;;;5081124;28;11539;-72
2023/01/28 10:31:31;;;;;;;;;26.75;22.25;;;;;;;;5077577;28;11518;-76
2023/01/28 10:33:59;;;;;;;;;35.25;32.50;;;;;;;;5074701;28;11581;-73
2023/01/28 10:36:27;;;;;;;;;22.00;18.00;;;;;;;;5068061;28;11563;-73
2023/01/28 10:38:54;;;;;;;;;27.50;21.75;;;;;;;;5075100;28;12331;-72
2023/01/28 10:41:25;;;;;;;;;28.50;24.50;;;;;;;;5069549;28;11557;-75
2023/01/28 10:43:52;;;;;;;;;26.50;24.75;;;;;;;;5074320;28;11542;-75
2023/01/28 10:46:22;;;;;;;;;26.75;24.25;;;;;;;;5073024;28;11587;-73
2023/01/28 10:48:57;;;;;;;;;21.25;14.00;;;;;;;;5070439;28;11545;-74
2023/01/28 10:51:32;;;;;;;;;27.25;24.75;;;;;;;;5076821;28;11554;-72
2023/01/28 10:53:59;;;;;;;;;27.50;23.25;;;;;;;;5076882;28;11536;-73
2023/01/28 10:56:29;;;;;;;;;25.25;24.00;;;;;;;;5071524;28;11528;-72
2023/01/28 10:59:00;;;;;;;;;23.00;20.50;;;;;;;;5082090;28;11535;-74
2023/01/28 11:01:42;;;;;;;;;22.00;22.00;;;;;;;;5075743;28;11490;-73
2023/01/28 11:04:19;;;;;;;;;28.75;24.50;;;;;;;;5078411;28;11542;-73
2023/01/28 11:06:59;;;;;;;;;33.75;32.25;;;;;;;;5073941;28;11517;-75
2023/01/28 11:09:30;;;;;;;;;27.75;25.25;;;;;;;;5078500;28;11564;-75
2023/01/28 11:11:58;;;;;;;;;31.50;24.75;;;;;;;;5073207;28;11657;-76
2023/01/28 11:14:26;;;;;;;;;30.50;27.00;;;;;;;;5082994;28;11553;-75
2023/01/28 11:16:56;;;;;;;;;27.75;22.75;;;;;;;;5082626;28;11549;-73
2023/01/28 11:19:32;;;;;;;;;28.50;27.25;;;;;;;;5077889;28;12379;-75
2023/01/28 11:22:01;;;;;;;;;31.25;28.50;;;;;;;;5077664;28;11549;-77
2023/01/28 11:24:32;;;;;;;;;26.50;26.25;;;;;;;;5079154;28;12337;-75
2023/01/28 11:27:12;;;;;;;;;23.00;21.50;;;;;;;;5076510;28;11584;-75
2023/01/28 11:29:41;;;;;;;;;25.50;22.50;;;;;;;;5079221;28;12039;-71
2023/01/28 11:32:18;;;;;;;;;29.50;21.50;;;;;;;;5078134;28;11489;-73
2023/01/28 11:34:52;;;;;;;;;36.25;26.00;;;;;;;;5073891;28;11655;-72
2023/01/28 11:37:22;;;;;;;;;25.75;24.00;;;;;;;;5071715;28;11558;-72
2023/01/28 11:40:00;;;;;;;;;28.00;21.25;;;;;;;;5071675;28;11517;-72
2023/01/28 11:42:28;;;;;;;;;24.75;24.75;;;;;;;;5071898;28;11530;-72
2023/01/28 11:44:55;;;;;;;;;28.25;26.50;;;;;;;;5074886;28;11584;-71
2023/01/28 11:47:46;;;;;;;;;27.00;26.25;;;;;;;;5073190;28;11564;-72
2023/01/28 11:50:24;;;;;;;;;28.75;28.00;;;;;;;;5073560;28;11553;-73
2023/01/28 11:53:01;;;;;;;;;34.00;28.00;;;;;;;;5077630;28;12868;-74
2023/01/28 11:55:49;;;;;;;;;24.75;21.00;;;;;;;;5079273;28;11550;-73
2023/01/28 11:58:22;;;;;;;;;21.00;21.00;;;;;;;;5072979;28;12384;-74
2023/01/28 12:01:01;;;;;;;;;34.25;28.75;;;;;;;;5066735;28;11488;-73
2023/01/28 12:03:51;;;;;;;;;19.75;19.75;;;;;;;;5076705;28;11564;-74
2023/01/28 12:06:43;;;;;;;;;27.25;24.75;;;;;;;;5076307;28;11691;-75
2023/01/28 12:09:18;;;;;;;;;25.00;20.50;;;;;;;;5066344;28;11548;-74
2023/01/28 12:12:12;;;;;;;;;24.25;23.25;;;;;;;;5065816;28;11554;-74
2023/01/28 12:14:55;;;;;;;;;30.50;26.00;;;;;;;;5072845;28;11641;-72
2023/01/28 12:17:30;;;;;;;;;21.00;16.75;;;;;;;;5075720;28;11606;-72
2023/01/28 12:20:05;;;;;;;;;22.00;19.25;;;;;;;;5074656;28;11503;-71
2023/01/28 12:22:54;;;;;;;;;27.75;25.00;;;;;;;;5072314;28;11569;-73
2023/01/28 12:25:31;;;;;;;;;20.75;20.75;;;;;;;;5074987;28;11545;-73
2023/01/28 12:28:05;;;;;;;;;24.75;23.75;;;;;;;;5072047;28;11513;-72
2023/01/28 12:30:47;;;;;;;;;23.50;23.25;;;;;;;;5077400;28;11561;-71
2023/01/28 12:33:34;;;;;;;;;23.25;18.75;;;;;;;;5073682;28;11631;-74
2023/01/28 12:36:06;;;;;;;;;26.75;25.75;;;;;;;;5079975;28;12762;-72
2023/01/28 12:38:44;;;;;;;;;24.75;19.25;;;;;;;;5073017;28;11528;-71
2023/01/28 12:41:14;;;;;;;;;27.50;23.50;;;;;;;;5073024;28;11621;-72
2023/01/28 12:43:52;;;;;;;;;25.75;23.75;;;;;;;;5076158;28;11525;-73
2023/01/28 12:46:33;;;;;;;;;27.50;24.00;;;;;;;;5075544;28;11527;-75
2023/01/28 12:49:05;;;;;;;;;27.50;23.00;;;;;;;;5070361;28;11744;-73
2023/01/28 12:51:46;;;;;;;;;33.25;28.25;;;;;;;;5074027;28;11705;-72
2023/01/28 12:54:21;;;;;;;;;34.50;27.00;;;;;;;;5079976;28;11516;-72
2023/01/28 12:56:52;;;;;;;;;28.75;22.75;;;;;;;;5078791;28;12472;-72
2023/01/28 12:59:25;;;;;;;;;26.50;15.25;;;;;;;;5061765;28;11543;-72
2023/01/28 13:01:58;;;;;;;;;22.50;20.25;;;;;;;;5078099;27;11500;-71
2023/01/28 13:04:32;;;;;;;;;27.00;26.75;;;;;;;;5080992;28;11692;-72
2023/01/28 13:07:02;;;;;;;;;33.75;30.50;;;;;;;;5074514;28;11582;-71
2023/01/28 13:09:35;;;;;;;;;27.50;27.50;;;;;;;;5072716;28;11666;-71
2023/01/28 13:12:04;;;;;;;;;35.25;31.00;;;;;;;;5074580;28;11536;-74
2023/01/28 13:14:32;;;;;;;;;40.50;28.75;;;;;;;;5070699;28;11554;-71
2023/01/28 13:17:10;;;;;;;;;30.75;25.75;;;;;;;;5075929;28;11557;-72
2023/01/28 13:19:40;;;;;;;;;32.50;27.75;;;;;;;;5075485;28;11535;-72
2023/01/28 13:22:26;;;;;;;;;36.50;31.50;;;;;;;;5079965;28;11517;-73
2023/01/28 13:24:55;;;;;;;;;23.00;20.25;;;;;;;;5070409;28;11632;-72
2023/01/28 13:27:24;;;;;;;;;55.25;44.50;;;;;;;;5069832;28;11537;-72
2023/01/28 13:30:05;;;;;;;;;35.00;30.00;;;;;;;;5074304;28;11537;-72
2023/01/28 13:32:36;;;;;;;;;33.50;28.25;;;;;;;;5074717;28;11599;-72
2023/01/28 13:35:06;;;;;;;;;30.50;29.75;;;;;;;;5076650;28;11595;-72
2023/01/28 13:37:35;;;;;;;;;29.75;28.00;;;;;;;;5071174;28;11551;-73
2023/01/28 13:40:09;;;;;;;;;26.25;24.25;;;;;;;;5076578;28;11566;-73
2023/01/28 13:42:37;;;;;;;;;24.00;23.00;;;;;;;;5073499;28;11529;-73
2023/01/28 13:45:28;;;;;;;;;28.75;27.50;;;;;;;;5069219;28;11540;-73
2023/01/28 13:48:01;;;;;;;;;36.00;27.75;;;;;;;;5057596;28;11567;-73
2023/01/28 13:50:38;;;;;;;;;35.50;30.75;;;;;;;;5075063;28;11553;-73
2023/01/28 13:53:17;;;;;;;;;34.75;29.75;;;;;;;;5076779;28;11617;-73
2023/01/28 13:55:48;;;;;;;;;27.50;24.00;;;;;;;;5078968;28;11507;-72
2023/01/28 13:58:38;;;;;;;;;31.00;27.50;;;;;;;;5077466;28;11655;-72
2023/01/28 14:01:49;;;;;;;;;37.75;31.00;;;;;;;;5075502;28;11480;-72
2023/01/28 14:04:58;;;;;;;;;34.50;28.00;;;;;;;;5005580;28;11564;-72
2023/01/28 14:07:56;;;;;;;;;38.25;32.75;;;;;;;;5076115;28;11524;-72
2023/01/28 14:10:38;;;;;;;;;31.00;27.50;;;;;;;;5075611;28;11551;-72
2023/01/28 14:13:48;;;;;;;;;22.75;19.75;;;;;;;;5073853;28;11559;-72
2023/01/28 14:16:32;;;;;;;;;29.25;22.50;;;;;;;;5034590;28;11539;-72
2023/01/28 14:19:02;;;;;;;;;27.50;27.00;;;;;;;;5072565;28;11554;-72
2023/01/28 14:21:33;;;;;;;;;37.25;30.75;;;;;;;;5080705;28;11574;-75
2023/01/28 14:24:01;;;;;;;;;26.50;24.50;;;;;;;;5075984;28;11526;-71
2023/01/28 14:26:37;;;;;;;;;32.75;27.00;;;;;;;;5077072;28;11524;-71
2023/01/28 14:29:27;;;;;;;;;36.75;31.75;;;;;;;;5080890;28;11563;-72
2023/01/28 14:31:56;;;;;;;;;29.75;21.75;;;;;;;;5070215;28;11515;-72
2023/01/28 14:34:27;;;;;;;;;37.75;32.25;;;;;;;;5079259;28;11511;-72
2023/01/28 14:36:56;;;;;;;;;36.00;30.00;;;;;;;;5081898;28;11573;-73
2023/01/28 14:39:27;;;;;;;;;31.25;29.00;;;;;;;;5063191;28;12040;-73
2023/01/28 14:41:55;;;;;;;;;31.50;29.25;;;;;;;;5077396;28;11569;-73
2023/01/28 14:44:32;;;;;;;;;32.25;24.00;;;;;;;;5082144;28;11652;-72
2023/01/28 14:47:13;;;;;;;;;32.75;28.25;;;;;;;;5078106;28;11546;-72
2023/01/28 14:49:52;;;;;;;;;37.00;27.25;;;;;;;;5076519;28;11554;-72
2023/01/28 14:52:54;;;;;;;;;37.75;32.25;;;;;;;;5078692;28;11563;-72
2023/01/28 14:55:33;;;;;;;;;35.25;25.25;;;;;;;;5078824;28;11584;-73
2023/01/28 14:58:03;;;;;;;;;21.75;21.75;;;;;;;;5073677;28;11539;-74
2023/01/28 15:00:33;;;;;;;;;30.00;21.75;;;;;;;;5080310;27;11486;-72
2023/01/28 15:03:09;;;;;;;;;29.75;24.25;;;;;;;;5081848;28;11506;-74
2023/01/28 15:05:37;;;;;;;;;37.00;31.75;;;;;;;;5082923;28;11532;-73
2023/01/28 15:08:04;;;;;;;;;34.75;29.25;;;;;;;;5080781;28;11673;-73
2023/01/28 15:10:36;;;;;;;;;30.00;24.50;;;;;;;;5081440;28;11661;-74
2023/01/28 15:13:07;;;;;;;;;39.50;32.25;;;;;;;;5082290;28;11577;-72